createdAt,value
2023-02-13T00:00:24.056Z,18.63
2023-02-13T00:02:51.479Z,18.03
2023-02-13T00:05:20.034Z,19.10
2023-02-13T00:07:46.931Z,19.40
2023-02-13T00:10:13.926Z,20.70
2023-02-13T00:12:41.201Z,20.77
2023-02-13T00:15:09.255Z,21.00
2023-02-13T00:17:36.585Z,20.10
2023-02-13T00:20:04.163Z,21.43
2023-02-13T00:22:35.435Z,21.67
2023-02-13T00:25:02.733Z,20.50
2023-02-13T00:27:29.629Z,21.63
2023-02-13T00:29:56.536Z,20.70
2023-02-13T00:32:23.790Z,19.10
2023-02-13T00:34:50.694Z,22.13
2023-02-13T00:37:17.684Z,19.90
2023-02-13T00:39:45.925Z,20.87
2023-02-13T00:42:12.760Z,22.20
2023-02-13T00:44:39.694Z,22.00
2023-02-13T00:47:06.572Z,24.50
2023-02-13T00:49:33.464Z,24.43
2023-02-13T00:52:01.796Z,25.17
2023-02-13T00:54:28.639Z,23.40
2023-02-13T00:56:56.828Z,24.00
2023-02-13T00:59:23.722Z,21.43
2023-02-13T01:01:50.666Z,21.37
2023-02-13T01:04:17.728Z,22.73
2023-02-13T01:06:44.696Z,26.53
2023-02-13T01:09:11.938Z,22.67
2023-02-13T01:11:38.821Z,23.90
2023-02-13T01:14:07.077Z,23.77
2023-02-13T01:16:34.134Z,28.37
2023-02-13T01:19:01.037Z,26.93
2023-02-13T01:21:31.516Z,26.57
2023-02-13T01:23:58.351Z,26.53
2023-02-13T01:26:25.464Z,25.40
2023-02-13T01:28:54.519Z,24.87
2023-02-13T01:31:22.817Z,26.20
2023-02-13T01:33:50.835Z,27.90
2023-02-13T01:36:21.485Z,25.20
2023-02-13T01:38:48.744Z,27.73
2023-02-13T01:41:15.837Z,27.23
2023-02-13T01:43:48.697Z,28.20
2023-02-13T01:46:18.820Z,26.50
2023-02-13T01:48:48.228Z,25.77
2023-02-13T01:51:20.075Z,25.07
2023-02-13T01:53:50.236Z,26.07
2023-02-13T01:56:23.943Z,26.23
2023-02-13T01:58:57.554Z,25.47
2023-02-13T02:01:25.822Z,27.13
2023-02-13T02:03:59.685Z,23.83
2023-02-13T02:06:33.429Z,24.70
2023-02-13T02:09:06.237Z,25.30
2023-02-13T02:11:39.580Z,24.80
2023-02-13T02:14:06.618Z,25.43
2023-02-13T02:16:34.476Z,27.63
2023-02-13T02:19:11.973Z,27.90
2023-02-13T02:21:51.737Z,25.43
2023-02-13T02:25:03.200Z,26.27
2023-02-13T02:27:58.631Z,26.47
2023-02-13T02:31:01.401Z,24.60
2023-02-13T02:33:36.126Z,25.33
2023-02-13T02:36:21.145Z,26.97
2023-02-13T02:39:01.236Z,24.80
2023-02-13T02:41:41.724Z,24.80
2023-02-13T02:44:25.286Z,23.93
2023-02-13T02:47:20.189Z,21.80
2023-02-13T02:50:00.213Z,21.83
2023-02-13T02:52:35.619Z,24.67
2023-02-13T02:55:08.972Z,24.73
2023-02-13T02:58:11.425Z,25.33
2023-02-13T03:01:00.857Z,25.13
2023-02-13T03:03:48.504Z,26.67
2023-02-13T03:06:23.128Z,26.03
2023-02-13T03:09:13.947Z,26.80
2023-02-13T03:12:03.214Z,23.33
2023-02-13T03:14:30.307Z,24.87
2023-02-13T03:17:16.834Z,25.63
2023-02-13T03:20:12.530Z,27.13
2023-02-13T03:22:51.682Z,24.50
2023-02-13T03:25:30.257Z,22.93
2023-02-13T03:28:20.355Z,26.13
2023-02-13T03:31:00.076Z,25.57
2023-02-13T03:33:56.521Z,29.37
2023-02-13T03:36:52.758Z,24.53
2023-02-13T03:39:23.974Z,24.90
2023-02-13T03:41:57.203Z,25.50
2023-02-13T03:44:28.851Z,25.33
2023-02-13T03:46:59.056Z,25.60
2023-02-13T03:49:48.961Z,25.33
2023-02-13T03:52:22.484Z,26.93
2023-02-13T03:55:14.021Z,23.90
2023-02-13T03:58:01.820Z,26.07
2023-02-13T04:00:35.793Z,26.23
2023-02-13T04:03:10.960Z,29.00
2023-02-13T04:05:43.057Z,24.80
2023-02-13T04:08:10.107Z,27.33
2023-02-13T04:10:47.003Z,26.27
2023-02-13T04:13:18.953Z,26.80
2023-02-13T04:15:50.067Z,26.20
2023-02-13T04:18:20.646Z,25.70
2023-02-13T04:20:47.690Z,26.23
2023-02-13T04:23:15.635Z,26.77
2023-02-13T04:25:46.919Z,24.07
2023-02-13T04:28:13.921Z,25.40
2023-02-13T04:30:40.970Z,25.30
2023-02-13T04:33:07.941Z,26.87
2023-02-13T04:35:35.430Z,25.47
2023-02-13T04:38:03.015Z,24.23
2023-02-13T04:40:29.885Z,28.00
2023-02-13T04:42:58.438Z,26.00
2023-02-13T04:45:25.327Z,26.37
2023-02-13T04:47:53.595Z,27.57
2023-02-13T04:50:20.691Z,27.07
2023-02-13T04:52:47.608Z,26.17
2023-02-13T04:55:14.711Z,29.47
2023-02-13T04:57:41.577Z,27.10
2023-02-13T05:00:11.225Z,25.87
2023-02-13T05:02:39.580Z,25.90
2023-02-13T05:05:06.814Z,27.13
2023-02-13T05:07:33.776Z,26.53
2023-02-13T05:10:00.703Z,26.77
2023-02-13T05:12:27.646Z,24.17
2023-02-13T05:14:54.572Z,25.27
2023-02-13T05:17:22.787Z,24.80
2023-02-13T05:19:49.641Z,25.33
2023-02-13T05:22:34.990Z,24.20
2023-02-13T05:25:01.905Z,25.77
2023-02-13T05:27:28.930Z,24.67
2023-02-13T05:29:55.760Z,25.70
2023-02-13T05:32:23.929Z,26.03
2023-02-13T05:34:50.764Z,27.30
2023-02-13T05:37:17.678Z,28.03
2023-02-13T05:39:44.574Z,28.83
2023-02-13T05:42:11.545Z,28.33
2023-02-13T05:44:38.536Z,26.63
2023-02-13T05:47:06.364Z,27.53
2023-02-13T05:49:34.633Z,26.50
2023-02-13T05:52:01.526Z,26.40
2023-02-13T05:54:28.485Z,24.93
2023-02-13T05:56:55.317Z,26.97
2023-02-13T05:59:23.937Z,25.43
2023-02-13T06:01:50.957Z,24.93
2023-02-13T06:04:17.893Z,22.93
2023-02-13T06:06:46.218Z,25.93
2023-02-13T06:09:13.080Z,25.33
2023-02-13T06:11:40.033Z,25.80
2023-02-13T06:14:06.976Z,25.47
2023-02-13T06:16:34.629Z,22.67
2023-02-13T06:19:01.457Z,23.10
2023-02-13T06:21:28.280Z,23.40
2023-02-13T06:23:56.538Z,25.70
2023-02-13T06:26:24.198Z,26.60
2023-02-13T06:28:51.191Z,24.43
2023-02-13T06:31:18.158Z,24.13
2023-02-13T06:33:45.191Z,23.47
2023-02-13T06:36:12.172Z,23.27
2023-02-13T06:38:39.106Z,22.57
2023-02-13T06:41:07.307Z,23.63
2023-02-13T06:43:34.222Z,25.63
2023-02-13T06:46:05.041Z,24.80
2023-02-13T06:48:32.012Z,24.67
2023-02-13T06:50:59.272Z,24.87
2023-02-13T06:53:26.386Z,27.03
2023-02-13T06:55:53.747Z,26.63
2023-02-13T06:58:23.280Z,26.47
2023-02-13T07:00:51.240Z,25.93
2023-02-13T07:03:18.276Z,26.73
2023-02-13T07:05:45.533Z,27.37
2023-02-13T07:08:13.113Z,28.37
2023-02-13T07:10:40.954Z,26.97
2023-02-13T07:13:08.720Z,26.63
2023-02-13T07:15:37.793Z,24.03
2023-02-13T07:18:05.915Z,29.57
2023-02-13T07:20:32.931Z,28.23
2023-02-13T07:23:00.413Z,32.27
2023-02-13T07:25:27.756Z,28.43
2023-02-13T07:27:54.630Z,27.77
2023-02-13T07:30:21.928Z,26.40
2023-02-13T07:32:51.242Z,24.13
2023-02-13T07:35:18.048Z,26.53
2023-02-13T07:37:44.866Z,27.17
2023-02-13T07:40:12.211Z,24.83
2023-02-13T07:42:39.027Z,25.00
2023-02-13T07:45:07.602Z,25.00
2023-02-13T07:47:35.030Z,24.20
2023-02-13T07:50:05.870Z,21.90
2023-02-13T07:52:33.373Z,20.03
2023-02-13T07:55:00.349Z,19.23
2023-02-13T07:57:27.164Z,21.50
2023-02-13T07:59:53.986Z,17.40
2023-02-13T08:02:20.798Z,17.27
2023-02-13T08:04:47.686Z,19.27
2023-02-13T08:07:17.407Z,17.33
2023-02-13T08:10:03.690Z,15.17
2023-02-13T08:13:01.257Z,15.87
2023-02-13T08:15:28.192Z,14.37
2023-02-13T08:17:55.025Z,14.23
2023-02-13T08:20:21.951Z,13.77
2023-02-13T08:22:50.440Z,14.00
2023-02-13T08:25:17.515Z,15.53
2023-02-13T08:27:44.492Z,16.10
2023-02-13T08:30:12.937Z,13.47
2023-02-13T08:32:53.371Z,13.70
2023-02-13T08:35:22.704Z,14.07
2023-02-13T08:37:51.057Z,13.73
2023-02-13T08:40:18.289Z,12.37
2023-02-13T08:42:45.285Z,11.67
2023-02-13T08:45:12.111Z,11.47
2023-02-13T08:47:39.887Z,11.57
2023-02-13T08:50:07.860Z,11.40
2023-02-13T08:52:35.022Z,11.63
2023-02-13T08:55:03.865Z,12.50
2023-02-13T08:57:31.342Z,11.77
2023-02-13T08:59:58.325Z,12.13
2023-02-13T09:02:25.291Z,11.90
2023-02-13T09:04:52.397Z,11.53
2023-02-13T09:07:19.223Z,12.53
2023-02-13T09:09:46.082Z,10.00
2023-02-13T09:12:14.341Z,11.63
2023-02-13T09:14:41.252Z,11.57
2023-02-13T09:17:08.217Z,10.33
2023-02-13T09:19:35.091Z,10.13
2023-02-13T09:22:02.132Z,10.90
2023-02-13T09:24:29.083Z,10.67
2023-02-13T09:26:56.671Z,10.13
2023-02-13T09:29:25.356Z,10.77
2023-02-13T09:31:52.716Z,11.10
2023-02-13T09:34:19.688Z,10.13
2023-02-13T09:36:46.547Z,9.83
2023-02-13T09:39:13.399Z,11.73
2023-02-13T09:41:42.706Z,9.80
2023-02-13T09:44:33.769Z,11.60
2023-02-13T09:47:06.685Z,10.63
2023-02-13T09:49:38.656Z,10.73
2023-02-13T09:52:05.682Z,10.83
2023-02-13T09:54:32.683Z,9.67
2023-02-13T09:57:02.487Z,10.60
2023-02-13T09:59:39.626Z,10.37
2023-02-13T10:02:43.722Z,11.63
2023-02-13T10:05:21.900Z,10.27
2023-02-13T10:07:58.141Z,10.43
2023-02-13T10:10:34.303Z,10.17
2023-02-13T10:13:17.447Z,10.93
2023-02-13T10:15:51.889Z,8.97
2023-02-13T10:18:24.217Z,9.43
2023-02-13T10:20:54.553Z,9.90
2023-02-13T10:23:26.947Z,9.83
2023-02-13T10:25:59.739Z,9.67
2023-02-13T10:28:34.950Z,8.90
2023-02-13T10:31:05.989Z,9.67
2023-02-13T10:33:41.468Z,9.80
2023-02-13T10:36:18.204Z,8.40
2023-02-13T10:38:50.921Z,8.00
2023-02-13T10:41:26.274Z,9.63
2023-02-13T10:44:03.302Z,9.50
2023-02-13T10:46:37.520Z,8.97
2023-02-13T10:49:24.061Z,8.70
2023-02-13T10:51:57.550Z,9.07
2023-02-13T10:54:35.421Z,9.10
2023-02-13T10:57:13.670Z,8.30
2023-02-13T10:59:58.236Z,8.07
2023-02-13T11:02:27.320Z,9.13
2023-02-13T11:05:00.360Z,8.03
2023-02-13T11:07:28.773Z,7.97
2023-02-13T11:09:59.669Z,8.33
2023-02-13T11:12:29.130Z,7.33
2023-02-13T11:14:58.165Z,7.50
2023-02-13T11:17:26.678Z,7.27
2023-02-13T11:19:55.566Z,6.37
2023-02-13T11:22:32.174Z,7.07
2023-02-13T11:25:02.446Z,7.73
2023-02-13T11:27:34.008Z,6.73
2023-02-13T11:30:03.134Z,6.57
2023-02-13T11:32:31.326Z,6.50
2023-02-13T11:35:06.926Z,6.50
2023-02-13T11:37:35.165Z,7.00
2023-02-13T11:40:29.217Z,7.63
2023-02-13T11:42:56.074Z,7.33
2023-02-13T11:45:25.552Z,7.03
2023-02-13T11:47:54.128Z,6.70
2023-02-13T11:50:24.908Z,8.30
2023-02-13T11:52:56.820Z,6.80
2023-02-13T11:55:32.494Z,7.10
2023-02-13T11:58:01.209Z,7.50
2023-02-13T12:00:33.778Z,8.50
2023-02-13T12:03:00.765Z,6.50
2023-02-13T12:05:28.624Z,8.23
2023-02-13T12:08:00.376Z,8.57
2023-02-13T12:10:28.446Z,7.47
2023-02-13T12:12:57.714Z,7.57
2023-02-13T12:15:26.798Z,10.20
2023-02-13T12:18:05.749Z,7.73
2023-02-13T12:20:41.357Z,7.87
2023-02-13T12:23:19.653Z,7.87
2023-02-13T12:25:55.661Z,8.83
2023-02-13T12:28:35.292Z,9.40
2023-02-13T12:31:17.093Z,9.97
2023-02-13T12:34:15.615Z,8.37
2023-02-13T12:36:54.280Z,8.80
2023-02-13T12:39:30.652Z,9.83
2023-02-13T12:42:21.574Z,9.90
2023-02-13T12:45:10.853Z,8.53
2023-02-13T12:47:47.594Z,8.13
2023-02-13T12:50:29.959Z,9.37
2023-02-13T12:53:12.959Z,8.37
2023-02-13T12:55:58.556Z,9.33
2023-02-13T12:58:58.999Z,8.87
2023-02-13T13:01:43.713Z,10.53
2023-02-13T13:04:19.060Z,8.67
2023-02-13T13:07:01.897Z,8.73
2023-02-13T13:09:44.522Z,9.10
2023-02-13T13:12:34.882Z,9.07
2023-02-13T13:15:09.606Z,9.17
2023-02-13T13:17:47.644Z,7.97
2023-02-13T13:20:34.550Z,9.87
2023-02-13T13:23:08.273Z,10.17
2023-02-13T13:25:43.901Z,8.83
2023-02-13T13:28:16.967Z,9.70
2023-02-13T13:30:44.963Z,9.77
2023-02-13T13:33:16.799Z,10.83
2023-02-13T13:35:50.297Z,10.33
2023-02-13T13:38:25.412Z,11.60
2023-02-13T13:40:57.959Z,8.57
2023-02-13T13:43:35.069Z,9.73
2023-02-13T13:46:08.779Z,11.10
2023-02-13T13:48:55.457Z,11.13
2023-02-13T13:51:22.839Z,10.53
2023-02-13T13:54:23.368Z,10.37
2023-02-13T13:57:09.085Z,12.67
2023-02-13T13:59:57.510Z,11.27
2023-02-13T14:02:43.566Z,12.57
2023-02-13T14:05:23.295Z,12.33
2023-02-13T14:07:52.237Z,12.73
2023-02-13T14:11:07.507Z,12.40
2023-02-13T14:13:36.955Z,12.33
2023-02-13T14:16:06.828Z,11.67
2023-02-13T14:18:35.349Z,14.63
2023-02-13T14:21:03.772Z,13.30
2023-02-13T14:23:36.084Z,12.73
2023-02-13T14:26:30.119Z,12.27
2023-02-13T14:29:30.579Z,13.70
2023-02-13T14:32:19.012Z,14.03
2023-02-13T14:34:57.117Z,11.43
2023-02-13T14:37:32.248Z,10.13
2023-02-13T14:40:43.494Z,12.17
2023-02-13T14:43:40.204Z,12.97
2023-02-13T14:46:21.429Z,11.53
2023-02-13T14:48:55.918Z,13.63
2023-02-13T14:51:28.844Z,13.00
2023-02-13T14:54:01.474Z,13.37
2023-02-13T14:56:30.496Z,13.27
2023-02-13T14:59:06.899Z,11.43
2023-02-13T15:01:36.022Z,15.23
2023-02-13T15:04:11.146Z,12.17
2023-02-13T15:06:41.380Z,12.47
2023-02-13T15:09:26.710Z,11.80
2023-02-13T15:11:53.535Z,12.80
2023-02-13T15:14:30.572Z,14.00
2023-02-13T15:17:02.837Z,16.50
2023-02-13T15:19:31.334Z,16.17
2023-02-13T15:22:00.561Z,12.20
2023-02-13T15:24:30.316Z,11.30
2023-02-13T15:27:02.252Z,12.83
2023-02-13T15:29:40.985Z,10.70
2023-02-13T15:32:19.312Z,11.57
2023-02-13T15:34:48.461Z,10.83
2023-02-13T15:37:21.687Z,10.50
2023-02-13T15:39:48.486Z,10.00
2023-02-13T15:42:15.444Z,11.57
2023-02-13T15:44:46.100Z,12.30
2023-02-13T15:47:18.040Z,12.37
2023-02-13T15:49:50.311Z,11.70
2023-02-13T15:52:21.635Z,11.50
2023-02-13T15:54:50.471Z,9.23
2023-02-13T15:57:18.167Z,10.60
2023-02-13T15:59:46.349Z,11.60
2023-02-13T16:02:19.292Z,10.77
2023-02-13T16:04:49.214Z,10.47
2023-02-13T16:07:16.264Z,11.80
2023-02-13T16:09:43.463Z,12.50
2023-02-13T16:12:20.490Z,12.13
2023-02-13T16:14:53.654Z,10.43
2023-02-13T16:17:28.131Z,11.10
2023-02-13T16:19:59.860Z,11.47
2023-02-13T16:22:31.946Z,10.30
2023-02-13T16:25:06.109Z,11.13
2023-02-13T16:27:34.512Z,11.73
2023-02-13T16:30:04.898Z,11.30
2023-02-13T16:32:35.007Z,13.37
2023-02-13T16:35:28.414Z,12.80
2023-02-13T16:37:57.666Z,12.60
2023-02-13T16:40:41.241Z,15.13
2023-02-13T16:43:34.019Z,16.33
2023-02-13T16:46:24.194Z,17.53
2023-02-13T16:49:20.033Z,15.13
2023-02-13T16:51:51.610Z,12.47
2023-02-13T16:54:31.944Z,12.83
2023-02-13T16:57:01.867Z,12.27
2023-02-13T16:59:55.293Z,18.00
2023-02-13T17:02:24.848Z,16.47
2023-02-13T17:04:54.046Z,13.30
2023-02-13T17:07:24.685Z,12.87
2023-02-13T17:09:56.788Z,14.80
2023-02-13T17:12:24.383Z,16.03
2023-02-13T17:14:52.095Z,14.03
2023-02-13T17:17:20.645Z,15.07
2023-02-13T17:19:48.578Z,13.77
2023-02-13T17:22:33.312Z,15.80
2023-02-13T17:25:02.216Z,17.13
2023-02-13T17:27:29.253Z,14.87
2023-02-13T17:29:56.159Z,16.53
2023-02-13T17:32:25.539Z,14.87
2023-02-13T17:34:52.619Z,17.87
2023-02-13T17:37:21.829Z,17.30
2023-02-13T17:39:50.446Z,15.63
2023-02-13T17:42:20.920Z,18.23
2023-02-13T17:44:47.844Z,13.53
2023-02-13T17:47:14.762Z,16.83
2023-02-13T17:49:42.064Z,15.60
2023-02-13T17:52:14.996Z,15.30
2023-02-13T17:54:42.085Z,16.30
2023-02-13T17:57:10.750Z,17.77
2023-02-13T17:59:37.744Z,17.10
2023-02-13T18:02:06.219Z,17.23
2023-02-13T18:04:33.197Z,17.27
2023-02-13T18:07:00.048Z,16.43
2023-02-13T18:09:27.042Z,15.60
2023-02-13T18:12:04.819Z,16.63
2023-02-13T18:14:34.545Z,17.57
2023-02-13T18:17:01.425Z,17.97
2023-02-13T18:19:28.314Z,16.57
2023-02-13T18:21:55.239Z,16.10
2023-02-13T18:24:22.145Z,18.47
2023-02-13T18:26:49.348Z,17.53
2023-02-13T18:29:16.266Z,16.87
2023-02-13T18:31:44.575Z,16.77
2023-02-13T18:34:11.493Z,17.23
2023-02-13T18:36:38.444Z,17.27
2023-02-13T18:39:05.518Z,16.23
2023-02-13T18:41:32.389Z,18.43
2023-02-13T18:43:59.351Z,21.73
2023-02-13T18:46:26.287Z,18.07
2023-02-13T18:48:54.541Z,18.60
2023-02-13T18:51:21.628Z,17.07
2023-02-13T18:53:48.596Z,17.77
2023-02-13T18:56:15.489Z,20.40
2023-02-13T18:58:42.362Z,19.43
2023-02-13T19:01:11.029Z,18.83
2023-02-13T19:03:39.538Z,18.50
2023-02-13T19:06:10.160Z,19.23
2023-02-13T19:08:37.336Z,16.53
2023-02-13T19:11:05.726Z,16.43
2023-02-13T19:13:33.171Z,19.20
2023-02-13T19:16:04.492Z,18.13
2023-02-13T19:18:31.775Z,17.30
2023-02-13T19:21:02.378Z,19.23
2023-02-13T19:23:30.817Z,18.17
2023-02-13T19:25:57.835Z,16.30
2023-02-13T19:28:24.935Z,17.33
2023-02-13T19:30:51.875Z,18.80
2023-02-13T19:33:19.154Z,16.90
2023-02-13T19:35:57.687Z,17.80
2023-02-13T19:38:24.592Z,17.17
2023-02-13T19:40:54.190Z,16.83
2023-02-13T19:43:21.444Z,17.90
2023-02-13T19:45:48.496Z,15.60
2023-02-13T19:48:15.680Z,19.20
2023-02-13T19:50:42.582Z,18.83
2023-02-13T19:53:09.464Z,18.47
2023-02-13T19:55:36.323Z,17.60
2023-02-13T19:58:04.965Z,18.37
2023-02-13T20:00:31.909Z,18.73
2023-02-13T20:03:03.750Z,19.37
2023-02-13T20:05:31.612Z,17.87
2023-02-13T20:07:58.603Z,20.87
2023-02-13T20:10:25.422Z,19.00
2023-02-13T20:12:54.985Z,17.00
2023-02-13T20:15:24.622Z,18.03
2023-02-13T20:17:51.814Z,19.47
2023-02-13T20:20:18.961Z,19.33
2023-02-13T20:22:47.209Z,17.93
2023-02-13T20:25:15.246Z,20.70
2023-02-13T20:27:42.923Z,19.50
2023-02-13T20:30:13.624Z,20.50
2023-02-13T20:32:41.914Z,18.97
2023-02-13T20:35:09.093Z,18.37
2023-02-13T20:37:36.111Z,18.23
2023-02-13T20:40:02.998Z,19.83
2023-02-13T20:42:32.800Z,18.70
2023-02-13T20:45:00.200Z,18.43
2023-02-13T20:47:27.212Z,17.80
2023-02-13T20:49:55.415Z,18.63
2023-02-13T20:52:22.533Z,21.13
2023-02-13T20:54:49.422Z,19.00
2023-02-13T20:57:16.425Z,15.70
2023-02-13T20:59:44.916Z,18.93
2023-02-13T21:02:12.423Z,18.30
2023-02-13T21:04:39.436Z,20.37
2023-02-13T21:07:09.235Z,17.73
2023-02-13T21:09:36.927Z,18.73
2023-02-13T21:12:04.092Z,32.10
2023-02-13T21:14:30.933Z,21.90
2023-02-13T21:16:57.782Z,18.90
2023-02-13T21:19:24.878Z,17.80
2023-02-13T21:21:51.852Z,18.33
2023-02-13T21:24:21.770Z,18.53
2023-02-13T21:26:52.294Z,19.33
2023-02-13T21:29:19.663Z,18.17
2023-02-13T21:31:47.767Z,20.00
2023-02-13T21:34:15.773Z,19.60
2023-02-13T21:36:42.713Z,18.43
2023-02-13T21:39:11.280Z,19.87
2023-02-13T21:41:41.414Z,18.87
2023-02-13T21:44:09.729Z,18.60
2023-02-13T21:46:36.982Z,19.90
2023-02-13T21:49:05.739Z,18.57
2023-02-13T21:51:34.762Z,21.37
2023-02-13T21:54:01.965Z,18.77
2023-02-13T21:56:30.582Z,19.70
2023-02-13T21:58:59.042Z,20.17
2023-02-13T22:01:28.133Z,19.03
2023-02-13T22:03:56.858Z,18.33
2023-02-13T22:06:25.501Z,18.40
2023-02-13T22:08:56.311Z,17.87
2023-02-13T22:11:23.325Z,18.90
2023-02-13T22:13:55.066Z,22.33
2023-02-13T22:16:23.779Z,18.73
2023-02-13T22:18:50.736Z,20.10
2023-02-13T22:21:19.423Z,19.30
2023-02-13T22:23:47.343Z,21.43
2023-02-13T22:26:16.705Z,20.17
2023-02-13T22:28:43.643Z,20.60
2023-02-13T22:31:11.536Z,19.30
2023-02-13T22:33:39.832Z,20.97
2023-02-13T22:36:07.513Z,21.10
2023-02-13T22:38:35.916Z,21.67
2023-02-13T22:41:07.411Z,22.30
2023-02-13T22:43:34.572Z,18.80
2023-02-13T22:46:05.731Z,20.93
2023-02-13T22:48:32.881Z,19.03
2023-02-13T22:51:04.459Z,21.27
2023-02-13T22:53:33.205Z,21.30
2023-02-13T22:56:01.908Z,22.07
2023-02-13T22:58:28.896Z,19.70
2023-02-13T23:00:55.849Z,21.33
2023-02-13T23:03:23.038Z,21.93
2023-02-13T23:05:49.975Z,20.47
2023-02-13T23:08:18.574Z,22.53
2023-02-13T23:11:08.312Z,21.30
2023-02-13T23:13:35.406Z,22.60
2023-02-13T23:16:02.293Z,20.70
2023-02-13T23:18:29.224Z,21.43
2023-02-13T23:20:56.236Z,22.17
2023-02-13T23:23:24.445Z,20.83
2023-02-13T23:25:51.304Z,21.03
2023-02-13T23:28:18.123Z,21.03
2023-02-13T23:30:45.127Z,20.87
2023-02-13T23:33:12.056Z,22.70
2023-02-13T23:35:39.000Z,21.90
2023-02-13T23:38:05.844Z,20.30
2023-02-13T23:40:34.025Z,19.30
2023-02-13T23:43:00.828Z,20.13
2023-02-13T23:45:27.909Z,20.30
2023-02-13T23:47:54.732Z,19.50
2023-02-13T23:50:21.631Z,20.67
2023-02-13T23:52:48.517Z,19.30
2023-02-13T23:55:15.558Z,19.43
2023-02-13T23:57:43.907Z,20.97
